Time;durP1;ratioP1;P1;durP2;ratioP2;P2;SDS_P1;SDS_P2;PMS_P1;PMS_P2;Temp;Humidity;BMP_temperature;BMP_pressure;BME280_temperature;BME280_humidity;BME280_pressure;Samples;Min_cycle;Max_cycle;Signal;HPM_P1;HPM_P2
2023/08/21 00:00:12;;;;;;;8.90;5.18;;;;;;;28.26;40.37;99703.88;5090137;28;20107;-43
2023/08/21 00:02:37;;;;;;;7.65;5.50;;;;;;;27.87;41.36;99700.94;5090233;28;20016;-46
2023/08/21 00:05:03;;;;;;;8.27;5.25;;;;;;;27.92;41.24;99705.47;5090064;28;20377;-47
2023/08/21 00:07:28;;;;;;;7.78;5.15;;;;;;;27.78;41.59;99702.88;5090185;28;20463;-43
2023/08/21 00:09:54;;;;;;;6.90;5.25;;;;;;;27.66;41.84;99703.50;5090056;28;20392;-44
2023/08/21 00:12:19;;;;;;;8.40;5.32;;;;;;;27.29;42.64;99705.63;5090107;28;20110;-46
2023/08/21 00:14:45;;;;;;;10.20;5.40;;;;;;;27.22;42.59;99702.50;5089729;28;20030;-45
2023/08/21 00:17:10;;;;;;;7.53;5.32;;;;;;;27.09;42.79;99709.72;5089822;28;20020;-43
2023/08/21 00:19:35;;;;;;;8.65;5.10;;;;;;;27.26;42.40;99706.28;5089868;28;20441;-46
2023/08/21 00:22:01;;;;;;;7.10;5.40;;;;;;;27.37;42.05;99711.44;5089641;28;20467;-43
2023/08/21 00:24:27;;;;;;;5.78;5.18;;;;;;;27.57;41.80;99710.03;5089571;28;20019;-45
2023/08/21 00:26:52;;;;;;;7.90;5.40;;;;;;;27.36;41.70;99709.81;5089424;28;20031;-42
2023/08/21 00:29:18;;;;;;;6.38;5.18;;;;;;;27.22;41.99;99710.72;5089591;28;20024;-43
2023/08/21 00:31:43;;;;;;;6.13;4.90;;;;;;;27.07;42.45;99711.13;5089567;28;20024;-44
2023/08/21 00:34:09;;;;;;;6.45;4.90;;;;;;;27.07;42.38;99708.41;5089457;28;20020;-45
2023/08/21 00:36:34;;;;;;;7.30;4.60;;;;;;;27.16;42.10;99719.38;5089862;28;20034;-43
2023/08/21 00:39:00;;;;;;;8.43;5.05;;;;;;;26.87;42.75;99720.69;5089192;28;20503;-43
2023/08/21 00:41:25;;;;;;;6.35;4.80;;;;;;;26.59;43.33;99720.00;5089574;28;20024;-42
2023/08/21 00:43:52;;;;;;;6.00;4.78;;;;;;;26.56;43.34;99715.16;5089546;28;20472;-42
2023/08/21 00:46:17;;;;;;;8.30;4.78;;;;;;;26.58;43.36;99715.63;5089655;28;20024;-44
2023/08/21 00:48:44;;;;;;;7.43;5.00;;;;;;;26.70;43.04;99722.19;5089465;28;20115;-43
2023/08/21 00:51:11;;;;;;;8.23;4.50;;;;;;;26.55;43.29;99711.63;5089279;28;20412;-44
2023/08/21 00:53:38;;;;;;;6.00;4.63;;;;;;;26.50;43.31;99717.19;5088692;28;20502;-45
2023/08/21 00:56:04;;;;;;;7.45;4.97;;;;;;;26.88;42.40;99717.63;5089479;28;20028;-45
2023/08/21 00:58:29;;;;;;;5.78;4.50;;;;;;;26.71;42.80;99712.06;5089216;28;20051;-46
2023/08/21 01:00:55;;;;;;;5.95;4.43;;;;;;;26.77;42.60;99716.28;5089468;28;20111;-44
2023/08/21 01:03:21;;;;;;;5.82;4.70;;;;;;;26.31;43.49;99711.91;5089272;28;20020;-43
2023/08/21 01:05:46;;;;;;;8.73;5.05;;;;;;;26.11;43.88;99696.84;5089325;28;20058;-42
2023/08/21 01:08:35;;;;;;;6.57;5.15;;;;;;;26.54;43.19;99707.28;5089231;28;20044;-44
2023/08/21 01:11:20;;;;;;;8.10;4.97;;;;;;;26.59;43.33;99711.81;5089311;28;20077;-43
2023/08/21 01:14:06;;;;;;;7.93;5.00;;;;;;;26.85;42.69;99718.25;5089379;28;20047;-43
2023/08/21 01:16:32;;;;;;;5.65;4.57;;;;;;;27.15;42.12;99718.56;5089609;28;20095;-47
2023/08/21 01:19:00;;;;;;;6.32;4.80;;;;;;;27.16;42.03;99716.63;5089101;28;20194;-44
2023/08/21 01:21:26;;;;;;;5.68;4.65;;;;;;;27.29;41.71;99722.00;5089072;28;20020;-45
2023/08/21 01:23:52;;;;;;;6.60;4.65;;;;;;;27.15;41.99;99718.56;5089550;28;20016;-44
2023/08/21 01:26:18;;;;;;;7.53;4.70;;;;;;;26.80;42.90;99710.19;5089027;28;20027;-44
2023/08/21 01:28:43;;;;;;;5.95;4.75;;;;;;;26.90;42.64;99720.88;5089100;28;20027;-43
2023/08/21 01:31:21;;;;;;;11.13;4.65;;;;;;;26.82;42.83;99715.34;5089251;28;20020;-43
2023/08/21 01:33:50;;;;;;;8.70;4.95;;;;;;;26.26;43.97;99714.78;5089082;28;20017;-46
2023/08/21 01:36:17;;;;;;;6.90;4.70;;;;;;;26.06;44.52;99719.56;5089304;28;20027;-45
2023/08/21 01:38:43;;;;;;;6.50;4.88;;;;;;;26.17;44.28;99727.53;5088782;28;20127;-44
2023/08/21 01:41:08;;;;;;;9.55;5.20;;;;;;;26.10;44.47;99725.22;5089018;28;20553;-42
2023/08/21 01:43:34;;;;;;;6.30;4.55;;;;;;;26.22;44.38;99727.44;5089316;28;20024;-43
2023/08/21 01:46:02;;;;;;;8.13;5.03;;;;;;;26.11;44.62;99721.41;5089151;28;20456;-44
2023/08/21 01:48:27;;;;;;;5.35;4.57;;;;;;;26.11;44.41;99721.41;5089296;28;20338;-45
2023/08/21 01:50:53;;;;;;;7.53;4.57;;;;;;;26.25;44.03;99724.88;5088864;28;20020;-45
2023/08/21 01:53:18;;;;;;;6.07;4.68;;;;;;;25.93;44.94;99725.88;5088975;28;20028;-43
2023/08/21 01:55:43;;;;;;;6.28;4.75;;;;;;;25.88;44.79;99721.31;5089116;28;20072;-44
2023/08/21 01:58:09;;;;;;;8.93;4.75;;;;;;;25.72;45.45;99715.41;5088813;28;20035;-44
2023/08/21 02:00:34;;;;;;;6.57;4.90;;;;;;;25.72;45.47;99712.69;5089229;28;20399;-45
2023/08/21 02:03:00;;;;;;;6.38;4.70;;;;;;;25.85;45.06;99719.19;5088911;28;20465;-45
2023/08/21 02:05:25;;;;;;;7.35;4.75;;;;;;;25.71;45.34;99712.97;5091230;28;20103;-46
2023/08/21 02:07:50;;;;;;;5.45;4.60;;;;;;;25.98;44.71;99714.06;5092813;28;20020;-46
2023/08/21 02:10:16;;;;;;;7.82;4.85;;;;;;;25.88;44.76;99718.59;5092582;28;20077;-45
2023/08/21 02:12:41;;;;;;;6.03;4.70;;;;;;;25.88;44.96;99720.53;5092734;28;20051;-46
2023/08/21 02:15:07;;;;;;;6.85;4.68;;;;;;;26.02;44.82;99717.78;5092570;28;20440;-44
2023/08/21 02:17:33;;;;;;;5.45;4.60;;;;;;;26.09;44.18;99710.78;5092396;28;20024;-43
2023/08/21 02:19:58;;;;;;;5.63;4.80;;;;;;;26.34;44.04;99712.09;5092340;28;20024;-45
2023/08/21 02:22:24;;;;;;;6.32;5.05;;;;;;;26.47;43.74;99707.72;5092507;28;20085;-47
2023/08/21 02:24:49;;;;;;;5.47;4.90;;;;;;;26.41;43.87;99711.69;5092110;28;20031;-45
2023/08/21 02:27:15;;;;;;;5.63;4.78;;;;;;;26.53;43.64;99711.13;5092096;28;20495;-46
2023/08/21 02:29:40;;;;;;;9.07;4.82;;;;;;;26.63;43.42;99712.81;5092042;28;20103;-47
2023/08/21 02:32:05;;;;;;;6.82;5.15;;;;;;;26.56;43.70;99705.06;5092341;28;20134;-47
2023/08/21 02:34:31;;;;;;;6.55;5.07;;;;;;;26.68;43.28;99715.44;5092115;28;20445;-45
2023/08/21 02:36:58;;;;;;;9.40;5.43;;;;;;;26.78;43.11;99706.16;5092387;28;20036;-45
2023/08/21 02:39:23;;;;;;;8.18;5.18;;;;;;;26.83;43.09;99709.56;5092081;28;20113;-44
2023/08/21 02:41:49;;;;;;;6.15;5.15;;;;;;;26.60;43.64;99702.50;5092067;28;20024;-44
2023/08/21 02:44:14;;;;;;;8.27;5.13;;;;;;;26.49;43.73;99710.13;5092081;28;20020;-44
2023/08/21 02:46:40;;;;;;;8.00;5.32;;;;;;;26.48;43.76;99709.34;5091674;28;20496;-45
2023/08/21 02:49:05;;;;;;;6.53;5.25;;;;;;;26.79;43.05;99710.50;5091964;28;20024;-46
2023/08/21 02:51:31;;;;;;;6.90;5.07;;;;;;;26.81;43.13;99711.81;5091811;28;20022;-44
2023/08/21 02:53:56;;;;;;;6.20;5.35;;;;;;;26.83;43.14;99709.56;5091703;28;20035;-43
2023/08/21 02:56:21;;;;;;;7.00;5.22;;;;;;;26.92;42.95;99707.69;5091531;28;20028;-44
2023/08/21 02:58:47;;;;;;;9.32;5.20;;;;;;;26.93;42.84;99708.50;5091676;28;20252;-48
2023/08/21 03:01:12;;;;;;;7.40;5.10;;;;;;;26.87;42.89;99709.75;5073206;28;20029;-43
2023/08/21 03:03:38;;;;;;;8.02;4.78;;;;;;;26.88;42.99;99708.63;5091745;28;20031;-44
2023/08/21 03:06:03;;;;;;;7.00;5.35;;;;;;;26.95;42.74;99705.47;5091531;28;20548;-47
2023/08/21 03:08:29;;;;;;;7.47;5.30;;;;;;;26.86;42.86;99708.94;5091621;28;20063;-43
2023/08/21 03:10:54;;;;;;;6.55;5.00;;;;;;;26.77;43.10;99710.84;5091456;28;20116;-45
2023/08/21 03:13:20;;;;;;;6.38;5.05;;;;;;;26.77;43.14;99710.00;5091293;28;20024;-46
2023/08/21 03:15:45;;;;;;;7.32;5.03;;;;;;;26.32;44.09;99700.69;5091073;28;20020;-46
2023/08/21 03:18:11;;;;;;;6.30;4.88;;;;;;;26.43;43.79;99709.47;5090898;28;20046;-45
2023/08/21 03:20:36;;;;;;;7.30;5.03;;;;;;;26.32;44.19;99717.06;5091182;28;20077;-46
2023/08/21 03:23:02;;;;;;;7.55;4.68;;;;;;;26.10;44.60;99706.97;5091203;28;20016;-45
2023/08/21 03:25:27;;;;;;;8.30;5.10;;;;;;;26.13;44.54;99710.97;5091326;28;20020;-44
2023/08/21 03:27:53;;;;;;;7.97;5.10;;;;;;;26.29;44.36;99712.25;5091096;28;20034;-44
2023/08/21 03:30:18;;;;;;;7.18;5.03;;;;;;;26.01;44.85;99716.16;5090765;28;20020;-44
2023/08/21 03:32:44;;;;;;;9.38;5.07;;;;;;;26.21;44.20;99725.81;5091097;28;20028;-42
2023/08/21 03:35:09;;;;;;;8.35;5.20;;;;;;;26.11;44.57;99721.41;5090762;28;20032;-44
2023/08/21 03:37:35;;;;;;;6.07;4.65;;;;;;;26.52;43.80;99715.78;5090889;28;20137;-46
2023/08/21 03:40:02;;;;;;;6.85;4.68;;;;;;;26.32;44.26;99716.28;5090708;28;20043;-43
2023/08/21 03:42:28;;;;;;;6.55;4.97;;;;;;;26.28;44.37;99713.34;5091125;28;20023;-45
2023/08/21 03:44:53;;;;;;;7.30;5.10;;;;;;;26.43;43.89;99714.13;5090867;28;20023;-44
2023/08/21 03:47:19;;;;;;;6.13;5.03;;;;;;;26.53;43.63;99717.38;5090804;28;20024;-42
2023/08/21 03:49:44;;;;;;;7.70;5.60;;;;;;;26.41;43.86;99724.53;5090663;28;20488;-45
2023/08/21 03:52:09;;;;;;;6.55;5.43;;;;;;;26.34;44.02;99722.22;5090755;28;20352;-44
2023/08/21 03:54:35;;;;;;;6.75;5.35;;;;;;;26.18;44.38;99723.69;5090523;28;20028;-45
2023/08/21 03:57:00;;;;;;;8.60;5.30;;;;;;;26.33;44.02;99721.41;5090800;28;20226;-46
2023/08/21 03:59:27;;;;;;;8.65;5.20;;;;;;;26.40;44.13;99712.78;5090499;28;20447;-45
2023/08/21 04:01:53;;;;;;;6.43;5.10;;;;;;;26.46;43.92;99727.13;5090593;28;20504;-44
2023/08/21 04:04:19;;;;;;;8.10;5.38;;;;;;;26.16;44.67;99725.91;5090776;28;20469;-43
2023/08/21 04:06:44;;;;;;;6.78;5.30;;;;;;;25.97;45.32;99723.34;5090580;28;20061;-44
2023/08/21 04:09:10;;;;;;;6.60;5.13;;;;;;;26.04;45.11;99721.81;5090499;28;20468;-43
2023/08/21 04:11:36;;;;;;;8.50;5.32;;;;;;;26.51;44.13;99722.34;5090751;28;20043;-42
2023/08/21 04:14:01;;;;;;;11.23;5.28;;;;;;;26.92;43.08;99721.34;5090523;28;20492;-43
2023/08/21 04:16:28;;;;;;;8.95;5.18;;;;;;;27.10;42.75;99711.31;5090665;28;20031;-44
2023/08/21 04:18:57;;;;;;;11.43;5.63;;;;;;;27.28;42.45;99733.25;5090943;28;20164;-42
2023/08/21 04:21:22;;;;;;;8.05;5.22;;;;;;;27.73;41.57;99732.28;5090591;28;20504;-41
2023/08/21 04:23:48;;;;;;;9.35;5.15;;;;;;;28.04;40.97;99729.44;5090793;28;20067;-44
2023/08/21 04:26:13;;;;;;;7.30;5.22;;;;;;;28.16;40.47;99731.53;5090692;28;20042;-42
2023/08/21 04:28:39;;;;;;;6.38;5.18;;;;;;;28.47;39.82;99731.38;5090881;28;20024;-43
2023/08/21 04:31:07;;;;;;;14.23;5.70;;;;;;;28.50;39.64;99724.44;5090827;28;20487;-43
2023/08/21 04:33:33;;;;;;;9.73;5.57;;;;;;;28.63;39.78;99728.97;5090920;28;20027;-46
2023/08/21 04:35:59;;;;;;;6.30;5.03;;;;;;;28.69;39.64;99732.34;5090977;28;20028;-46
2023/08/21 04:38:25;;;;;;;7.90;4.90;;;;;;;29.28;38.59;99734.44;5090286;28;20557;-43
2023/08/21 04:40:50;;;;;;;7.40;5.03;;;;;;;29.54;37.72;99740.59;5090389;28;20088;-44
2023/08/21 04:43:16;;;;;;;7.80;5.07;;;;;;;29.88;37.46;99741.56;5090459;28;20026;-42
2023/08/21 04:45:49;;;;;;;7.90;5.30;;;;;;;30.25;36.60;99739.00;5090637;28;20103;-41
2023/08/21 04:48:14;;;;;;;8.10;4.93;;;;;;;30.59;36.30;99737.91;5090478;28;20020;-44
2023/08/21 04:50:40;;;;;;;10.20;5.07;;;;;;;30.79;36.22;99749.22;5090398;28;20024;-43
2023/08/21 04:53:06;;;;;;;7.47;4.90;;;;;;;31.24;35.39;99742.88;5090319;28;20392;-44
2023/08/21 04:55:31;;;;;;;6.90;4.90;;;;;;;31.49;34.47;99742.94;5090033;28;20016;-44
2023/08/21 04:57:56;;;;;;;5.88;4.88;;;;;;;31.65;34.33;99749.34;5090368;28;20027;-43
2023/08/21 05:00:22;;;;;;;7.75;5.50;;;;;;;31.44;34.67;99752.19;5090113;28;20111;-44
2023/08/21 05:02:47;;;;;;;8.40;5.88;;;;;;;31.43;34.62;99747.03;5090201;28;20063;-44
2023/08/21 05:05:13;;;;;;;11.25;6.60;;;;;;;31.15;34.89;99744.97;5090223;28;20155;-43
2023/08/21 05:07:38;;;;;;;10.40;6.38;;;;;;;31.63;34.29;99745.34;5090330;28;20023;-43
2023/08/21 05:10:04;;;;;;;15.27;6.35;;;;;;;32.20;33.58;99747.09;5090430;28;20144;-43
2023/08/21 05:12:30;;;;;;;9.38;6.47;;;;;;;32.62;33.02;99752.22;5090429;28;20417;-44
2023/08/21 05:14:55;;;;;;;10.27;5.55;;;;;;;32.36;33.33;99743.59;5090030;28;20072;-45
2023/08/21 05:17:21;;;;;;;11.43;5.68;;;;;;;32.50;32.87;99752.22;5090035;28;20024;-43
2023/08/21 05:19:46;;;;;;;9.18;5.00;;;;;;;32.80;32.72;99754.66;5090088;28;20065;-42
2023/08/21 05:22:12;;;;;;;12.25;4.93;;;;;;;32.44;32.92;99745.38;5090314;28;20400;-44
2023/08/21 05:24:37;;;;;;;8.85;5.60;;;;;;;32.82;32.38;99747.63;5090261;28;20081;-46
2023/08/21 05:27:04;;;;;;;8.68;4.88;;;;;;;33.49;31.75;99753.28;5090343;28;20024;-42
2023/08/21 05:29:30;;;;;;;7.95;4.72;;;;;;;33.87;31.58;99759.28;5090139;28;20094;-44
2023/08/21 05:31:55;;;;;;;8.15;4.82;;;;;;;34.45;30.34;99753.81;5090192;28;20065;-42
2023/08/21 05:34:20;;;;;;;6.90;4.80;;;;;;;34.72;30.61;99761.47;5090041;28;20028;-42
2023/08/21 05:36:46;;;;;;;7.63;4.80;;;;;;;35.22;29.53;99757.63;5090302;28;20035;-44
2023/08/21 05:39:11;;;;;;;6.78;4.40;;;;;;;35.66;28.79;99758.28;5090020;28;20350;-43
2023/08/21 05:41:37;;;;;;;6.70;4.45;;;;;;;36.15;28.45;99749.88;5094124;28;20443;-43
2023/08/21 05:44:02;;;;;;;8.25;5.13;;;;;;;36.36;28.45;99754.13;5093745;28;20388;-44
2023/08/21 05:46:28;;;;;;;6.63;4.85;;;;;;;36.43;27.91;99762.53;5094030;28;20141;-43
2023/08/21 05:48:53;;;;;;;8.65;4.57;;;;;;;36.50;27.66;99754.31;5093309;28;20089;-42
2023/08/21 05:51:18;;;;;;;6.75;4.30;;;;;;;36.83;27.12;99755.47;5093753;28;20023;-43
2023/08/21 05:53:44;;;;;;;6.28;4.55;;;;;;;36.55;27.34;99759.47;5093605;28;20016;-43
2023/08/21 05:56:09;;;;;;;5.30;4.38;;;;;;;36.54;27.39;99754.34;5093916;28;20021;-45
2023/08/21 05:58:35;;;;;;;7.13;4.25;;;;;;;35.73;28.01;99756.44;5093755;28;20026;-44
2023/08/21 06:01:00;;;;;;;5.50;4.68;;;;;;;36.06;27.77;99760.44;5093417;28;20024;-43
2023/08/21 06:03:26;;;;;;;7.03;4.32;;;;;;;36.37;27.40;99761.28;5093544;28;20483;-43
2023/08/21 06:05:51;;;;;;;7.18;4.22;;;;;;;36.37;27.58;99762.06;5093998;28;20031;-40
2023/08/21 06:08:18;;;;;;;8.98;4.55;;;;;;;36.15;27.44;99760.19;5093555;28;20404;-46
2023/08/21 06:10:43;;;;;;;6.68;4.40;;;;;;;36.47;27.28;99762.56;5093405;28;20016;-43
2023/08/21 06:13:08;;;;;;;7.05;4.25;;;;;;;36.86;26.49;99763.03;5093368;28;20020;-43
2023/08/21 06:15:34;;;;;;;9.57;4.47;;;;;;;36.97;26.50;99765.88;5093191;28;20031;-44
2023/08/21 06:18:00;;;;;;;5.57;4.45;;;;;;;37.59;25.83;99769.97;5092987;28;20030;-44
2023/08/21 06:20:26;;;;;;;7.60;4.05;;;;;;;37.23;25.86;99772.47;5093512;28;20028;-44
2023/08/21 06:22:51;;;;;;;8.13;4.80;;;;;;;37.20;25.71;99773.25;5093376;28;20024;-46
2023/08/21 06:25:19;;;;;;;6.97;4.20;;;;;;;36.57;26.51;99768.22;5092961;28;20427;-45
2023/08/21 06:27:44;;;;;;;6.93;4.23;;;;;;;37.25;26.10;99775.66;5092967;28;20024;-43
2023/08/21 06:30:10;;;;;;;5.43;4.00;;;;;;;36.50;26.06;99772.88;5093079;28;20012;-45
2023/08/21 06:32:36;;;;;;;6.03;3.85;;;;;;;37.13;25.52;99774.78;5092921;28;20349;-44
2023/08/21 06:35:01;;;;;;;6.10;4.13;;;;;;;37.47;25.70;99771.06;5092925;28;20024;-44
2023/08/21 06:37:26;;;;;;;7.45;4.10;;;;;;;37.28;25.73;99775.69;5074761;28;20032;-45
2023/08/21 06:39:52;;;;;;;6.45;4.38;;;;;;;37.24;25.40;99777.63;5093095;28;20051;-43
2023/08/21 06:42:17;;;;;;;6.97;4.50;;;;;;;37.45;25.41;99768.69;5093166;28;20103;-43
2023/08/21 06:44:43;;;;;;;5.32;4.10;;;;;;;37.65;25.03;99774.00;5092997;28;20396;-44
2023/08/21 06:47:08;;;;;;;7.32;4.00;;;;;;;37.92;24.45;99771.78;5092533;28;20032;-42
2023/08/21 06:49:34;;;;;;;8.55;4.13;;;;;;;38.06;24.49;99776.59;5092734;28;20173;-44
2023/08/21 06:51:59;;;;;;;5.57;4.20;;;;;;;37.70;24.56;99770.84;5091550;28;20507;-45
2023/08/21 06:54:25;;;;;;;4.65;3.70;;;;;;;37.94;24.69;99772.19;5092674;28;20024;-46
2023/08/21 06:56:50;;;;;;;6.40;4.30;;;;;;;38.27;24.13;99776.75;5092600;28;20019;-44
2023/08/21 06:59:16;;;;;;;7.10;3.78;;;;;;;38.04;24.55;99777.03;5092935;28;20027;-44
2023/08/21 07:01:41;;;;;;;10.52;3.95;;;;;;;37.89;24.57;99778.91;5092349;28;20551;-43
2023/08/21 07:04:06;;;;;;;6.30;3.90;;;;;;;37.65;24.97;99783.13;5092766;28;20598;-46
2023/08/21 07:06:32;;;;;;;5.72;3.83;;;;;;;37.91;24.33;99778.53;5092542;28;20480;-43
2023/08/21 07:08:58;;;;;;;6.57;3.60;;;;;;;38.05;24.44;99778.59;5092126;28;20099;-42
2023/08/21 07:11:23;;;;;;;7.57;4.07;;;;;;;37.89;24.23;99778.09;5092355;28;20020;-44
2023/08/21 07:13:48;;;;;;;9.63;4.00;;;;;;;38.06;24.28;99771.03;5092139;28;20427;-43
2023/08/21 07:16:14;;;;;;;6.32;3.40;;;;;;;38.78;23.93;99777.69;5091814;28;20495;-44
2023/08/21 07:18:39;;;;;;;3.80;3.40;;;;;;;39.38;22.98;99778.97;5092308;28;20028;-42
2023/08/21 07:21:05;;;;;;;6.20;3.80;;;;;;;39.51;22.70;99773.00;5092221;28;20024;-43
2023/08/21 07:23:32;;;;;;;7.50;3.60;;;;;;;39.03;22.88;99771.41;5092040;28;20157;-46
2023/08/21 07:25:58;;;;;;;7.15;3.83;;;;;;;39.01;22.88;99771.78;5091898;28;20028;-43
2023/08/21 07:28:23;;;;;;;5.43;4.07;;;;;;;39.19;23.05;99768.25;5091909;28;20035;-42
2023/08/21 07:30:55;;;;;;;9.00;5.63;;;;;;;39.33;22.61;99761.88;5091720;28;20401;-45
2023/08/21 07:33:20;;;;;;;9.77;5.22;;;;;;;39.34;23.06;99766.22;5091863;28;20031;-44
2023/08/21 07:35:46;;;;;;;5.82;4.05;;;;;;;39.39;22.92;99765.84;5091766;28;20020;-43
2023/08/21 07:38:11;;;;;;;6.18;3.60;;;;;;;39.59;22.46;99757.91;5091725;28;20120;-43
2023/08/21 07:40:37;;;;;;;6.80;3.80;;;;;;;39.78;22.60;99754.66;5091629;28;20021;-44
2023/08/21 07:43:02;;;;;;;6.90;4.00;;;;;;;39.71;22.61;99754.66;5091800;28;20016;-47
2023/08/21 07:45:28;;;;;;;4.53;3.67;;;;;;;39.27;22.71;99762.25;5091457;28;20418;-45
2023/08/21 07:47:53;;;;;;;5.20;3.72;;;;;;;40.03;22.54;99757.38;5091259;28;20062;-44
2023/08/21 07:50:19;;;;;;;9.52;4.18;;;;;;;40.24;21.73;99747.34;5091648;28;20027;-45
2023/08/21 07:52:44;;;;;;;5.32;3.63;;;;;;;40.75;21.20;99747.88;5091391;28;20036;-46
2023/08/21 07:55:10;;;;;;;4.18;3.40;;;;;;;41.34;20.53;99752.66;5091314;28;20028;-44
2023/08/21 07:57:36;;;;;;;8.15;3.47;;;;;;;41.21;20.51;99755.94;5091044;28;20027;-45
2023/08/21 08:00:01;;;;;;;7.97;3.50;;;;;;;40.81;20.35;99752.63;5090861;28;20023;-44
2023/08/21 08:02:27;;;;;;;6.13;3.50;;;;;;;41.46;20.02;99742.94;5090598;28;20093;-43
2023/08/21 08:04:52;;;;;;;5.15;3.30;;;;;;;41.98;19.70;99742.78;5090843;28;20109;-47
2023/08/21 08:07:17;;;;;;;5.75;3.90;;;;;;;42.53;18.93;99738.09;5090943;28;20161;-45
2023/08/21 08:09:43;;;;;;;7.72;3.90;;;;;;;42.25;19.40;99751.25;5090855;28;20448;-43
2023/08/21 08:12:08;;;;;;;8.38;3.70;;;;;;;42.98;18.81;99748.25;5090588;28;20472;-46
2023/08/21 08:14:35;;;;;;;5.55;3.40;;;;;;;42.63;19.38;99750.34;5091116;28;20024;-44
2023/08/21 08:17:00;;;;;;;5.72;3.20;;;;;;;43.00;18.19;99743.78;5090804;28;20107;-43
2023/08/21 08:19:26;;;;;;;5.95;3.35;;;;;;;42.69;18.71;99743.06;5073165;28;20107;-43
2023/08/21 08:21:51;;;;;;;5.55;3.20;;;;;;;42.34;18.98;99731.94;5090877;28;20479;-43
2023/08/21 08:24:16;;;;;;;5.20;3.08;;;;;;;42.66;19.15;99730.72;5091112;28;20408;-44
2023/08/21 08:26:43;;;;;;;5.78;3.30;;;;;;;42.86;18.47;99716.81;5090896;28;20023;-43
2023/08/21 08:29:09;;;;;;;3.75;3.05;;;;;;;43.36;18.40;99734.03;5090527;28;20099;-42
2023/08/21 08:31:34;;;;;;;5.20;3.17;;;;;;;43.65;17.79;99731.47;5090167;28;20067;-45
2023/08/21 08:34:00;;;;;;;4.45;3.40;;;;;;;43.47;18.21;99723.38;5090613;28;20484;-44
2023/08/21 08:36:25;;;;;;;6.28;3.47;;;;;;;43.72;17.83;99728.56;5090819;28;20031;-43
2023/08/21 08:38:51;;;;;;;3.55;3.00;;;;;;;43.66;18.03;99725.44;5090097;28;20126;-48
2023/08/21 08:41:33;;;;;;;5.15;3.65;;;;;;;42.46;18.57;99724.19;5090269;28;20484;-44
2023/08/21 08:44:01;;;;;;;5.75;3.30;;;;;;;42.98;17.67;99718.25;5090555;28;20023;-45
2023/08/21 08:46:28;;;;;;;;;;;;;;;43.62;17.77;99718.31;5090794;28;20089;-47
2023/08/21 08:48:54;;;;;;;4.00;3.60;;;;;;;43.05;17.98;99711.72;5090273;28;20007;-49
2023/08/21 08:51:19;;;;;;;7.28;3.40;;;;;;;43.81;17.84;99708.34;5090404;28;20095;-45
2023/08/21 08:53:45;;;;;;;4.13;3.25;;;;;;;44.51;17.47;99710.06;5090137;28;20484;-47
2023/08/21 08:56:10;;;;;;;4.38;3.45;;;;;;;44.52;17.66;99708.84;5089728;28;20174;-44
2023/08/21 08:58:36;;;;;;;4.57;3.38;;;;;;;44.85;16.82;99698.41;5089990;28;20031;-50
2023/08/21 09:01:02;;;;;;;4.78;3.45;;;;;;;44.88;16.65;99697.53;5089661;28;20101;-46
2023/08/21 09:03:29;;;;;;;6.25;3.50;;;;;;;45.16;16.51;99695.22;5090360;28;20348;-45
2023/08/21 09:05:55;;;;;;;7.97;3.55;;;;;;;45.46;16.33;99698.84;5089783;28;20414;-46
2023/08/21 09:08:20;;;;;;;7.88;3.70;;;;;;;45.24;16.64;99693.81;5090099;28;20077;-45
2023/08/21 09:10:45;;;;;;;4.50;3.40;;;;;;;43.32;17.42;99694.91;5090684;28;20016;-44
2023/08/21 09:13:16;;;;;;;5.18;3.40;;;;;;;41.91;18.95;99693.38;5090292;28;20024;-44
2023/08/21 09:15:49;;;;;;;5.22;3.30;;;;;;;43.25;18.71;99689.38;5093272;28;20169;-45
2023/08/21 09:18:15;;;;;;;7.47;3.47;;;;;;;42.94;18.07;99690.31;5094536;28;20027;-45
2023/08/21 09:20:41;;;;;;;6.55;3.80;;;;;;;43.85;17.60;99679.06;5094186;28;20020;-45
2023/08/21 09:23:07;;;;;;;7.05;3.42;;;;;;;44.40;17.59;99681.44;5094193;28;20484;-45
2023/08/21 09:25:35;;;;;;;5.45;4.20;;;;;;;44.48;17.06;99671.66;5094079;28;20020;-46
2023/08/21 09:28:04;;;;;;;;;;;;;;;43.57;17.48;99668.41;5094917;28;20024;-45
2023/08/21 09:30:29;;;;;;;5.60;3.88;;;;;;;43.49;17.30;99664.97;5094750;28;19931;-44
2023/08/21 09:32:59;;;;;;;6.63;4.07;;;;;;;43.33;17.46;99662.88;5094068;28;20479;-43
2023/08/21 09:35:26;;;;;;;6.90;3.50;;;;;;;43.60;17.34;99659.13;5094032;28;20032;-43
2023/08/21 09:37:54;;;;;;;7.78;3.42;;;;;;;43.66;17.61;99651.78;5094099;28;20075;-43
2023/08/21 09:40:21;;;;;;;5.28;3.10;;;;;;;43.08;17.64;99654.91;5093345;28;20288;-46
2023/08/21 09:42:55;;;;;;;4.00;3.05;;;;;;;43.20;17.26;99650.69;5094014;28;20518;-44
2023/08/21 09:45:25;;;;;;;5.88;3.30;;;;;;;42.50;17.63;99649.47;5094162;28;20504;-42
2023/08/21 09:47:52;;;;;;;3.45;3.10;;;;;;;42.97;17.54;99646.72;5093761;28;20533;-42
2023/08/21 09:50:18;;;;;;;4.43;3.55;;;;;;;43.51;17.63;99643.72;5093604;28;20149;-43
2023/08/21 09:52:45;;;;;;;4.68;3.30;;;;;;;43.99;16.86;99638.72;5093470;28;20206;-44
2023/08/21 09:55:13;;;;;;;6.95;3.70;;;;;;;44.65;17.03;99634.00;5093535;28;20092;-43
2023/08/21 09:57:39;;;;;;;8.65;3.63;;;;;;;44.79;16.89;99627.22;5093280;28;20035;-43
2023/08/21 10:00:15;;;;;;;5.63;3.83;;;;;;;43.51;18.18;99637.31;5093413;28;20024;-43
2023/08/21 10:02:45;;;;;;;5.78;3.25;;;;;;;43.39;17.40;99635.16;5093429;28;20020;-47
2023/08/21 10:05:13;;;;;;;6.22;3.30;;;;;;;42.11;18.23;99637.66;5093192;28;20321;-44
2023/08/21 10:07:40;;;;;;;6.85;3.40;;;;;;;42.04;18.51;99628.56;5093447;28;20102;-43
2023/08/21 10:10:07;;;;;;;5.03;3.40;;;;;;;41.76;18.07;99622.16;5093765;28;20166;-43
2023/08/21 10:12:33;;;;;;;4.47;3.28;;;;;;;42.32;18.37;99618.97;5093590;28;20258;-44
2023/08/21 10:14:58;;;;;;;5.40;3.15;;;;;;;42.53;18.36;99612.28;5093589;28;20039;-45
2023/08/21 10:17:23;;;;;;;7.30;3.20;;;;;;;42.77;17.39;99602.66;5093297;28;20483;-47
2023/08/21 10:19:55;;;;;;;4.00;3.08;;;;;;;43.27;17.60;99600.16;5093323;28;20337;-45
2023/08/21 10:22:52;;;;;;;6.40;3.17;;;;;;;43.12;17.24;99603.25;5093340;28;20085;-45
2023/08/21 10:25:23;;;;;;;5.72;3.30;;;;;;;43.39;17.24;99593.94;5072885;28;20036;-43
2023/08/21 10:28:03;;;;;;;5.55;3.25;;;;;;;43.65;16.33;99606.19;5093016;28;20191;-42
2023/08/21 10:30:29;;;;;;;6.70;3.17;;;;;;;41.48;17.70;99603.75;5092918;28;20037;-44
2023/08/21 10:32:57;;;;;;;6.07;3.25;;;;;;;40.01;18.87;99603.78;5092804;28;20038;-47
2023/08/21 10:35:30;;;;;;;8.73;3.50;;;;;;;38.89;20.19;99592.19;5093000;28;20119;-45
2023/08/21 10:38:12;;;;;;;4.72;3.55;;;;;;;38.77;20.33;99592.63;5093002;28;20036;-44
2023/08/21 10:41:05;;;;;;;7.28;3.50;;;;;;;38.71;20.19;99595.00;5092721;28;20457;-46
2023/08/21 10:43:43;;;;;;;5.80;3.33;;;;;;;38.77;20.39;99584.28;5093010;28;20130;-43
2023/08/21 10:46:09;;;;;;;4.20;3.17;;;;;;;38.61;20.99;99583.88;5092502;28;20424;-44
2023/08/21 10:48:36;;;;;;;5.80;3.50;;;;;;;39.59;20.21;99588.09;5092728;28;20020;-46
2023/08/21 10:51:03;;;;;;;5.47;3.63;;;;;;;40.06;19.28;99585.84;5092717;28;20020;-42
2023/08/21 10:53:30;;;;;;;5.00;3.80;;;;;;;40.52;19.58;99578.38;5092460;28;20077;-46
2023/08/21 10:55:56;;;;;;;5.05;2.92;;;;;;;39.94;19.17;99580.75;5092960;28;20020;-47
2023/08/21 10:58:22;;;;;;;5.65;3.15;;;;;;;39.44;19.53;99592.91;5092404;28;20487;-45
2023/08/21 11:00:56;;;;;;;4.72;2.90;;;;;;;39.34;19.71;99586.16;5092707;28;20055;-43
2023/08/21 11:03:21;;;;;;;4.15;3.22;;;;;;;38.45;20.70;99593.38;5092421;28;20024;-45
2023/08/21 11:06:00;;;;;;;4.20;3.20;;;;;;;38.51;20.96;99591.00;5092250;28;20074;-44
2023/08/21 11:08:26;;;;;;;5.53;3.20;;;;;;;38.76;20.74;99581.91;5092474;28;20499;-47
2023/08/21 11:10:52;;;;;;;3.88;3.15;;;;;;;38.95;20.40;99583.47;5092217;28;20028;-44
2023/08/21 11:13:18;;;;;;;4.82;3.40;;;;;;;39.28;19.96;99573.84;5092218;28;20024;-45
2023/08/21 11:15:45;;;;;;;4.65;2.97;;;;;;;39.63;19.64;99572.94;5092145;28;20028;-44
2023/08/21 11:18:11;;;;;;;4.55;3.30;;;;;;;39.14;20.23;99582.25;5092342;28;20553;-42
2023/08/21 11:20:36;;;;;;;5.30;3.10;;;;;;;38.95;20.08;99572.34;5092478;28;20020;-44
2023/08/21 11:23:07;;;;;;;6.22;3.30;;;;;;;38.60;20.07;99576.75;5092344;28;20497;-44
2023/08/21 11:25:34;;;;;;;3.58;2.90;;;;;;;38.33;20.31;99582.69;5092131;28;20032;-44
2023/08/21 11:28:02;;;;;;;4.65;3.08;;;;;;;38.24;20.49;99576.72;5091993;28;20038;-44
2023/08/21 11:30:28;;;;;;;6.88;3.00;;;;;;;38.45;20.59;99573.16;5091821;28;20510;-44